Time;durP1;ratioP1;P1;durP2;ratioP2;P2;SDS_P1;SDS_P2;PMS_P1;PMS_P2;Temp;Humidity;BMP_temperature;BMP_pressure;BME280_temperature;BME280_humidity;BME280_pressure;Samples;Min_cycle;Max_cycle;Signal;HPM_P1;HPM_P2
2023/12/17 00:01:18;;;;;;;;;;;-0.20;99.90;;;;;;5018293;28;19945;-77
2023/12/17 00:03:43;;;;;;;;;;;-0.10;99.90;;;;;;5018809;28;19936;-76
2023/12/17 00:06:09;;;;;;;;;;;0.00;99.90;;;;;;5018238;28;19909;-77
2023/12/17 00:08:34;;;;;;;;;;;-0.20;99.90;;;;;;5034414;28;20362;-77
2023/12/17 00:11:00;;;;;;;;;;;-0.20;99.90;;;;;;5017290;28;19972;-78
2023/12/17 00:13:25;;;;;;;;;;;-0.20;99.90;;;;;;5017529;28;19977;-79
2023/12/17 00:15:51;;;;;;;;;;;-0.30;99.90;;;;;;5033689;28;19920;-77
2023/12/17 00:18:17;;;;;;;;;;;-0.20;99.90;;;;;;5033547;28;19940;-76
2023/12/17 00:20:42;;;;;;;;;;;-0.20;99.90;;;;;;5033746;28;20305;-77
2023/12/17 00:23:08;;;;;;;;;;;-0.10;99.90;;;;;;5033558;28;19988;-77
2023/12/17 00:25:33;;;;;;;;;;;-0.10;99.90;;;;;;5018144;28;19912;-77
2023/12/17 00:27:59;;;;;;;;;;;-0.10;99.90;;;;;;5017401;28;19913;-78
2023/12/17 00:30:24;;;;;;;;;;;-0.10;99.90;;;;;;5033872;28;20377;-78
2023/12/17 00:32:50;;;;;;;;;;;-0.10;99.90;;;;;;5033821;28;19909;-77
2023/12/17 00:35:15;;;;;;;;;;;-0.10;99.90;;;;;;5034186;28;19916;-78
2023/12/17 00:37:41;;;;;;;;;;;-0.10;99.90;;;;;;5021097;28;19909;-77
2023/12/17 00:40:07;;;;;;;;;;;-0.10;99.90;;;;;;5037762;28;19909;-78
2023/12/17 00:42:33;;;;;;;;;;;-0.10;99.90;;;;;;5037115;28;20179;-78
2023/12/17 00:44:58;;;;;;;;;;;-0.20;99.90;;;;;;5022863;28;19914;-78
2023/12/17 00:47:24;;;;;;;;;;;-0.10;99.90;;;;;;5021843;28;19924;-78
2023/12/17 00:49:49;;;;;;;;;;;-0.10;99.90;;;;;;5022064;28;19909;-77
2023/12/17 00:52:15;;;;;;;;;;;-0.10;99.90;;;;;;5036415;28;19905;-80
2023/12/17 00:54:41;;;;;;;;;;;-0.10;99.90;;;;;;5022837;28;19963;-78
2023/12/17 00:57:06;;;;;;;;;;;-0.10;99.90;;;;;;5022483;28;19913;-77
2023/12/17 00:59:32;;;;;;;;;;;-0.10;99.90;;;;;;5022358;28;20304;-77
2023/12/17 01:01:57;;;;;;;;;;;0.00;99.90;;;;;;5022024;28;19920;-78
2023/12/17 01:04:22;;;;;;;;;;;0.00;99.90;;;;;;5036982;28;19924;-78
2023/12/17 01:06:48;;;;;;;;;;;0.10;99.90;;;;;;5021144;28;20023;-78
2023/12/17 01:09:14;;;;;;;;;;;0.10;99.90;;;;;;5021755;28;20329;-78
2023/12/17 01:11:39;;;;;;;;;;;0.10;99.90;;;;;;5021719;28;19969;-76
2023/12/17 01:14:05;;;;;;;;;;;0.20;99.90;;;;;;5021184;28;20429;-77
2023/12/17 01:16:30;;;;;;;;;;;0.20;99.90;;;;;;5021759;28;19917;-77
2023/12/17 01:18:56;;;;;;;;;;;0.20;99.90;;;;;;5035240;28;19912;-78
2023/12/17 01:21:21;;;;;;;;;;;0.20;99.90;;;;;;5020915;28;19909;-78
2023/12/17 01:23:47;;;;;;;;;;;0.20;99.90;;;;;;5020608;28;19916;-77
2023/12/17 01:26:20;;;;;;;;;;;0.30;99.90;;;;;;5019800;28;19909;-77
2023/12/17 01:28:46;;;;;;;;;;;0.30;99.90;;;;;;5019221;28;19905;-77
2023/12/17 01:31:12;;;;;;;;;;;0.20;99.90;;;;;;5035196;28;19910;-76
2023/12/17 01:33:37;;;;;;;;;;;0.20;99.90;;;;;;5026220;28;19923;-78
2023/12/17 01:36:03;;;;;;;;;;;0.20;99.90;;;;;;5020883;28;19910;-77
2023/12/17 01:38:29;;;;;;;;;;;0.10;99.90;;;;;;5017990;28;20599;-77
2023/12/17 01:40:54;;;;;;;;;;;0.10;99.90;;;;;;5019134;28;20000;-77
2023/12/17 01:43:20;;;;;;;;;;;0.20;99.90;;;;;;5034146;28;20039;-77
2023/12/17 01:45:45;;;;;;;;;;;0.20;99.90;;;;;;5018878;28;19909;-79
2023/12/17 01:48:11;;;;;;;;;;;0.10;99.90;;;;;;5018663;28;19952;-77
2023/12/17 01:50:37;;;;;;;;;;;0.20;99.90;;;;;;5018354;28;20055;-77
2023/12/17 01:53:03;;;;;;;;;;;0.30;99.90;;;;;;5034454;28;19968;-77
2023/12/17 01:55:29;;;;;;;;;;;0.10;99.90;;;;;;5033713;28;20866;-77
2023/12/17 01:57:55;;;;;;;;;;;0.10;99.90;;;;;;5019220;28;20416;-77
2023/12/17 02:00:20;;;;;;;;;;;0.20;99.90;;;;;;5017760;28;19999;-77
2023/12/17 02:02:47;;;;;;;;;;;0.20;99.90;;;;;;5017815;28;19948;-77
2023/12/17 02:05:12;;;;;;;;;;;0.10;99.90;;;;;;5018963;28;20392;-77
2023/12/17 02:07:39;;;;;;;;;;;0.10;99.90;;;;;;5033970;28;19917;-77
2023/12/17 02:10:05;;;;;;;;;;;0.20;99.90;;;;;;5034001;28;19913;-77
2023/12/17 02:12:31;;;;;;;;;;;0.20;99.90;;;;;;5033402;28;19905;-77
2023/12/17 02:14:56;;;;;;;;;;;0.20;99.90;;;;;;5017768;28;19921;-77
2023/12/17 02:17:31;;;;;;;;;;;0.20;99.90;;;;;;5018538;28;20286;-77
2023/12/17 02:19:57;;;;;;;;;;;0.20;99.90;;;;;;5019224;28;19910;-77
2023/12/17 02:22:23;;;;;;;;;;;0.20;99.90;;;;;;5034156;28;20360;-77
2023/12/17 02:24:52;;;;;;;;;;;0.30;99.90;;;;;;5034460;28;20473;-77
2023/12/17 02:27:21;;;;;;;;;;;0.10;99.90;;;;;;5034192;28;19995;-76
2023/12/17 02:29:47;;;;;;;;;;;0.10;99.90;;;;;;5017547;28;19929;-77
2023/12/17 02:32:14;;;;;;;;;;;0.10;99.90;;;;;;5018964;28;20305;-77
2023/12/17 02:34:40;;;;;;;;;;;0.10;99.90;;;;;;5019017;28;19918;-77
2023/12/17 02:37:05;;;;;;;;;;;0.20;99.90;;;;;;5018706;28;19917;-77
2023/12/17 02:39:31;;;;;;;;;;;0.30;99.90;;;;;;5018817;28;20365;-77
2023/12/17 02:41:58;;;;;;;;;;;0.30;99.90;;;;;;5018820;28;19909;-78
2023/12/17 02:44:23;;;;;;;;;;;0.40;99.90;;;;;;5017626;28;19909;-77
2023/12/17 02:46:49;;;;;;;;;;;0.50;99.90;;;;;;5018738;28;19922;-77
2023/12/17 02:49:14;;;;;;;;;;;0.60;99.90;;;;;;5018483;28;20000;-77
2023/12/17 02:51:40;;;;;;;;;;;0.60;99.90;;;;;;5033834;28;20377;-77
2023/12/17 02:54:05;;;;;;;;;;;0.70;99.90;;;;;;5034038;28;19916;-77
2023/12/17 02:56:37;;;;;;;;;;;0.80;99.90;;;;;;5017207;28;19916;-77
2023/12/17 02:59:04;;;;;;;;;;;0.80;99.90;;;;;;5017515;28;19932;-77
2023/12/17 03:01:29;;;;;;;;;;;0.90;99.90;;;;;;5033495;28;19909;-76
2023/12/17 03:03:55;;;;;;;;;;;0.90;99.90;;;;;;5018608;28;19913;-78
2023/12/17 03:06:20;;;;;;;;;;;0.90;99.90;;;;;;5018225;28;19957;-77
2023/12/17 03:08:46;;;;;;;;;;;0.90;99.90;;;;;;5034099;28;19905;-77
2023/12/17 03:11:11;;;;;;;;;;;0.90;99.90;;;;;;5033851;28;20448;-78
2023/12/17 03:13:37;;;;;;;;;;;0.80;99.90;;;;;;5033971;28;19952;-77
2023/12/17 03:16:02;;;;;;;;;;;0.80;99.90;;;;;;5018373;28;20000;-77
2023/12/17 03:18:28;;;;;;;;;;;0.80;99.90;;;;;;5019153;28;20373;-77
2023/12/17 03:20:53;;;;;;;;;;;0.80;99.90;;;;;;5018492;28;19913;-77
2023/12/17 03:23:19;;;;;;;;;;;0.80;99.90;;;;;;5018649;28;20000;-77
2023/12/17 03:25:44;;;;;;;;;;;0.90;99.90;;;;;;5016725;28;19935;-77
2023/12/17 03:28:10;;;;;;;;;;;0.90;99.90;;;;;;5018288;28;19913;-78
2023/12/17 03:30:35;;;;;;;;;;;0.90;99.90;;;;;;5019057;28;19913;-79
2023/12/17 03:33:01;;;;;;;;;;;1.00;99.90;;;;;;5016684;28;19980;-77
2023/12/17 03:35:26;;;;;;;;;;;1.00;99.90;;;;;;5017937;28;20449;-76
2023/12/17 03:37:52;;;;;;;;;;;0.90;99.90;;;;;;5021405;28;19905;-78
2023/12/17 03:40:17;;;;;;;;;;;0.90;99.90;;;;;;5023314;28;19905;-78
2023/12/17 03:42:43;;;;;;;;;;;0.90;99.90;;;;;;5018071;28;19937;-76
2023/12/17 03:45:08;;;;;;;;;;;0.90;99.90;;;;;;5016010;28;20559;-77
2023/12/17 03:47:36;;;;;;;;;;;0.90;99.90;;;;;;5016547;28;19920;-78
2023/12/17 03:50:01;;;;;;;;;;;0.90;99.90;;;;;;5017082;28;19913;-77
2023/12/17 03:52:27;;;;;;;;;;;0.90;99.90;;;;;;5017171;28;19906;-77
2023/12/17 03:54:52;;;;;;;;;;;0.80;99.90;;;;;;5032940;28;20270;-77
2023/12/17 03:57:18;;;;;;;;;;;0.80;99.90;;;;;;5016369;28;19906;-77
2023/12/17 03:59:43;;;;;;;;;;;0.80;99.90;;;;;;5017288;28;19913;-77
2023/12/17 04:02:09;;;;;;;;;;;0.80;99.90;;;;;;5016944;28;19979;-77
2023/12/17 04:04:34;;;;;;;;;;;0.80;99.90;;;;;;5017240;28;19968;-77
2023/12/17 04:07:00;;;;;;;;;;;0.70;99.90;;;;;;5017427;28;19913;-77
2023/12/17 04:09:25;;;;;;;;;;;0.70;99.90;;;;;;5015887;28;19910;-77
2023/12/17 04:11:51;;;;;;;;;;;0.60;99.90;;;;;;5031601;28;19928;-77
2023/12/17 04:14:16;;;;;;;;;;;0.60;99.90;;;;;;5017074;28;20374;-76
2023/12/17 04:16:42;;;;;;;;;;;0.70;99.90;;;;;;5031833;28;19917;-77
2023/12/17 04:19:07;;;;;;;;;;;0.70;99.90;;;;;;5016836;28;19915;-77
2023/12/17 04:21:33;;;;;;;;;;;0.70;99.90;;;;;;5017131;28;19910;-77
2023/12/17 04:23:58;;;;;;;;;;;0.70;99.90;;;;;;5016544;28;20366;-77
2023/12/17 04:26:24;;;;;;;;;;;0.60;99.90;;;;;;5016858;28;19906;-77
2023/12/17 04:28:49;;;;;;;;;;;0.60;99.90;;;;;;5014905;28;19910;-77
2023/12/17 04:31:15;;;;;;;;;;;0.60;99.90;;;;;;5031425;28;20401;-77
2023/12/17 04:33:40;;;;;;;;;;;0.60;99.90;;;;;;5016750;28;19905;-77
2023/12/17 04:36:06;;;;;;;;;;;0.60;99.90;;;;;;5016148;28;19992;-78
2023/12/17 04:38:32;;;;;;;;;;;0.50;99.90;;;;;;5031289;28;20353;-77
2023/12/17 04:40:57;;;;;;;;;;;0.50;99.90;;;;;;5031853;28;19906;-77
2023/12/17 04:43:23;;;;;;;;;;;0.50;99.90;;;;;;5014855;28;19916;-78
2023/12/17 04:45:49;;;;;;;;;;;0.60;99.90;;;;;;5015077;28;19917;-76
2023/12/17 04:48:14;;;;;;;;;;;0.60;99.90;;;;;;5016725;28;19989;-77
2023/12/17 04:50:40;;;;;;;;;;;0.50;99.90;;;;;;5014636;28;19951;-77
2023/12/17 04:53:05;;;;;;;;;;;0.60;99.90;;;;;;5032061;28;19956;-77
2023/12/17 04:55:32;;;;;;;;;;;0.60;99.90;;;;;;5015146;28;19909;-76
2023/12/17 04:57:57;;;;;;;;;;;0.50;99.90;;;;;;5016883;28;19905;-77
2023/12/17 05:00:23;;;;;;;;;;;0.50;99.90;;;;;;5015516;28;19928;-77
2023/12/17 05:02:48;;;;;;;;;;;0.40;99.90;;;;;;5016468;28;19909;-77
2023/12/17 05:05:14;;;;;;;;;;;0.40;99.90;;;;;;5031735;28;19984;-78
2023/12/17 05:07:39;;;;;;;;;;;0.40;99.90;;;;;;5015105;28;19920;-77
2023/12/17 05:10:05;;;;;;;;;;;0.40;99.90;;;;;;5015753;28;19909;-77
2023/12/17 05:12:32;;;;;;;;;;;0.40;99.90;;;;;;5031817;28;19968;-77
2023/12/17 05:14:57;;;;;;;;;;;0.40;99.90;;;;;;5031507;28;19906;-77
2023/12/17 05:17:23;;;;;;;;;;;0.40;99.90;;;;;;5016128;28;19913;-77
2023/12/17 05:19:48;;;;;;;;;;;0.40;99.90;;;;;;5016498;28;19951;-76
2023/12/17 05:22:14;;;;;;;;;;;0.40;99.90;;;;;;5017108;28;19906;-77
2023/12/17 05:24:39;;;;;;;;;;;0.30;99.90;;;;;;5034608;28;20267;-77
2023/12/17 05:27:05;;;;;;;;;;;0.30;99.90;;;;;;5019621;28;19925;-77
2023/12/17 05:29:30;;;;;;;;;;;0.30;99.90;;;;;;5018502;28;19909;-77
2023/12/17 05:31:56;;;;;;;;;;;0.40;99.90;;;;;;5033646;28;19985;-77
2023/12/17 05:34:21;;;;;;;;;;;0.40;99.90;;;;;;5018680;28;19909;-76
2023/12/17 05:36:47;;;;;;;;;;;0.40;99.90;;;;;;5018553;28;19916;-77
2023/12/17 05:39:12;;;;;;;;;;;0.40;99.90;;;;;;5033887;28;19909;-76
2023/12/17 05:41:38;;;;;;;;;;;0.40;99.90;;;;;;5036525;28;19909;-77
2023/12/17 05:44:03;;;;;;;;;;;0.40;99.90;;;;;;5032674;28;19936;-76
2023/12/17 05:46:29;;;;;;;;;;;0.50;99.90;;;;;;5032477;28;20401;-77
2023/12/17 05:48:54;;;;;;;;;;;0.60;99.90;;;;;;5016514;28;19909;-77
2023/12/17 05:51:20;;;;;;;;;;;0.70;99.90;;;;;;5016239;28;19941;-76
2023/12/17 05:53:46;;;;;;;;;;;0.80;99.90;;;;;;5016477;28;20270;-75
2023/12/17 05:56:11;;;;;;;;;;;1.00;99.90;;;;;;5015987;28;19913;-76
2023/12/17 05:58:37;;;;;;;;;;;1.00;99.90;;;;;;5031961;28;20401;-77
2023/12/17 06:01:03;;;;;;;;;;;1.00;99.90;;;;;;5015580;28;19951;-76
2023/12/17 06:03:28;;;;;;;;;;;1.10;99.90;;;;;;5031666;28;20360;-76
2023/12/17 06:05:54;;;;;;;;;;;1.20;99.90;;;;;;5014695;28;19983;-77
2023/12/17 06:08:19;;;;;;;;;;;1.20;99.90;;;;;;5015557;28;20020;-76
2023/12/17 06:10:45;;;;;;;;;;;1.20;99.90;;;;;;5014073;28;19910;-76
2023/12/17 06:13:10;;;;;;;;;;;1.30;99.90;;;;;;5013697;28;19913;-76
2023/12/17 06:15:36;;;;;;;;;;;1.10;99.90;;;;;;5016212;28;20812;-76
2023/12/17 06:18:01;;;;;;;;;;;1.10;99.90;;;;;;5014868;28;20359;-76
2023/12/17 06:20:27;;;;;;;;;;;1.10;99.90;;;;;;5015034;28;19909;-76
2023/12/17 06:22:53;;;;;;;;;;;1.10;99.90;;;;;;5014767;28;19909;-77
2023/12/17 06:25:18;;;;;;;;;;;1.20;99.90;;;;;;5015911;28;20354;-76
2023/12/17 06:27:44;;;;;;;;;;;1.10;99.90;;;;;;5031266;28;19925;-76
2023/12/17 06:30:10;;;;;;;;;;;1.10;99.90;;;;;;5015687;28;19951;-76
2023/12/17 06:32:35;;;;;;;;;;;1.00;99.90;;;;;;5006924;28;20004;-76
2023/12/17 06:35:01;;;;;;;;;;;1.00;99.90;;;;;;5016101;28;19916;-77
2023/12/17 06:37:26;;;;;;;;;;;0.90;99.90;;;;;;5031977;28;19905;-76
2023/12/17 06:39:52;;;;;;;;;;;0.90;99.90;;;;;;5017388;28;19905;-77
2023/12/17 06:42:17;;;;;;;;;;;1.00;99.90;;;;;;5017793;28;19944;-76
2023/12/17 06:44:43;;;;;;;;;;;0.90;99.90;;;;;;5016395;28;19906;-77
2023/12/17 06:47:08;;;;;;;;;;;0.90;99.90;;;;;;5016143;28;19909;-76
2023/12/17 06:49:36;;;;;;;;;;;0.90;99.90;;;;;;5016668;28;19910;-76
2023/12/17 06:52:01;;;;;;;;;;;0.90;99.90;;;;;;5016874;28;20333;-77
2023/12/17 06:54:27;;;;;;;;;;;1.00;99.90;;;;;;5014784;28;20366;-76
2023/12/17 06:56:52;;;;;;;;;;;1.10;99.90;;;;;;5014168;28;19912;-76
2023/12/17 06:59:18;;;;;;;;;;;1.10;99.90;;;;;;5017874;28;19896;-76
2023/12/17 07:01:43;;;;;;;;;;;1.20;99.90;;;;;;5016845;28;19906;-77
2023/12/17 07:04:09;;;;;;;;;;;1.20;99.90;;;;;;5019066;28;19917;-77
2023/12/17 07:06:36;;;;;;;;;;;1.30;99.90;;;;;;5017765;28;20436;-78
2023/12/17 07:09:01;;;;;;;;;;;1.40;99.90;;;;;;5020083;28;20002;-77
2023/12/17 07:11:27;;;;;;;;;;;1.50;99.90;;;;;;5018955;28;20394;-77
2023/12/17 07:13:52;;;;;;;;;;;1.50;99.90;;;;;;5020786;28;20012;-77
2023/12/17 07:16:21;;;;;;;;;;;1.60;99.90;;;;;;5016717;28;20012;-76
2023/12/17 07:18:47;;;;;;;;;;;1.60;99.90;;;;;;5033843;28;19909;-76
2023/12/17 07:21:12;;;;;;;;;;;1.90;99.90;;;;;;5018730;28;19909;-77
2023/12/17 07:23:38;;;;;;;;;;;1.90;99.90;;;;;;5019110;28;19917;-77
2023/12/17 07:26:03;;;;;;;;;;;2.10;99.90;;;;;;5017502;28;19913;-76
2023/12/17 07:28:29;;;;;;;;;;;2.10;99.90;;;;;;5018515;28;19917;-77
2023/12/17 07:30:54;;;;;;;;;;;2.20;99.90;;;;;;5018476;28;19905;-77
2023/12/17 07:33:20;;;;;;;;;;;2.30;99.90;;;;;;5018705;28;19905;-77
2023/12/17 07:35:45;;;;;;;;;;;2.40;99.90;;;;;;5022347;28;19927;-77
2023/12/17 07:38:11;;;;;;;;;;;2.50;99.90;;;;;;5023835;28;19906;-79
2023/12/17 07:40:36;;;;;;;;;;;2.70;99.90;;;;;;5024220;28;19909;-77
2023/12/17 07:43:02;;;;;;;;;;;2.80;99.90;;;;;;5021668;28;19906;-77
2023/12/17 07:45:27;;;;;;;;;;;2.80;99.90;;;;;;5018741;28;19913;-77
2023/12/17 07:47:53;;;;;;;;;;;2.90;99.90;;;;;;5017458;28;20374;-77
2023/12/17 07:50:18;;;;;;;;;;;2.80;99.90;;;;;;5012820;28;20056;-77
2023/12/17 07:52:44;;;;;;;;;;;2.70;99.90;;;;;;5030179;28;20329;-76
2023/12/17 07:55:10;;;;;;;;;;;2.60;99.90;;;;;;5029173;28;19913;-77
2023/12/17 07:57:35;;;;;;;;;;;2.60;99.90;;;;;;5015763;28;19920;-77
2023/12/17 08:00:01;;;;;;;;;;;2.70;99.90;;;;;;5012952;28;19916;-76
2023/12/17 08:02:27;;;;;;;;;;;2.80;99.90;;;;;;5029027;28;20271;-77
2023/12/17 08:04:53;;;;;;;;;;;3.00;99.90;;;;;;5032076;28;19928;-77
2023/12/17 08:07:18;;;;;;;;;;;3.10;99.90;;;;;;5017655;28;20102;-77
2023/12/17 08:09:44;;;;;;;;;;;3.10;99.90;;;;;;5033086;28;19909;-77
2023/12/17 08:12:10;;;;;;;;;;;3.10;99.90;;;;;;5017718;28;19909;-77
2023/12/17 08:14:35;;;;;;;;;;;3.20;99.90;;;;;;5018724;28;20405;-78
2023/12/17 08:17:01;;;;;;;;;;;3.20;99.90;;;;;;5015360;28;19910;-77
2023/12/17 08:19:27;;;;;;;;;;;3.40;99.90;;;;;;5016491;28;20441;-76
2023/12/17 08:21:53;;;;;;;;;;;3.50;99.90;;;;;;5033802;28;19909;-77
2023/12/17 08:24:18;;;;;;;;;;;3.50;99.90;;;;;;5034568;28;19964;-76
2023/12/17 08:26:44;;;;;;;;;;;3.50;99.90;;;;;;5019303;28;19941;-77
2023/12/17 08:29:09;;;;;;;;;;;3.70;99.90;;;;;;5020651;28;19917;-77
2023/12/17 08:31:35;;;;;;;;;;;3.60;99.90;;;;;;5034793;28;20298;-78
2023/12/17 08:34:00;;;;;;;;;;;3.70;99.90;;;;;;5034123;28;19921;-77
2023/12/17 08:36:27;;;;;;;;;;;3.80;99.90;;;;;;5034727;28;20282;-78
2023/12/17 08:38:54;;;;;;;;;;;3.80;99.90;;;;;;5019114;28;19912;-77
2023/12/17 08:41:19;;;;;;;;;;;3.80;99.90;;;;;;5018467;28;19917;-77
2023/12/17 08:43:45;;;;;;;;;;;3.80;99.90;;;;;;5017865;28;19905;-77
2023/12/17 08:46:11;;;;;;;;;;;3.80;99.90;;;;;;5014683;28;19909;-78
2023/12/17 08:48:37;;;;;;;;;;;3.80;99.90;;;;;;5016252;28;19913;-79
2023/12/17 08:51:03;;;;;;;;;;;3.80;99.90;;;;;;5013086;28;19931;-77
2023/12/17 08:53:29;;;;;;;;;;;3.80;99.90;;;;;;5015824;28;20037;-78
2023/12/17 08:55:54;;;;;;;;;;;3.80;99.90;;;;;;5030555;28;20378;-78
2023/12/17 08:58:20;;;;;;;;;;;3.80;99.90;;;;;;5036104;28;19909;-78
2023/12/17 09:00:45;;;;;;;;;;;3.80;99.90;;;;;;5036807;28;19956;-77
2023/12/17 09:03:11;;;;;;;;;;;3.90;99.90;;;;;;5019967;28;19963;-78
2023/12/17 09:05:36;;;;;;;;;;;3.90;99.90;;;;;;5035918;28;19966;-77
2023/12/17 09:08:02;;;;;;;;;;;4.00;99.90;;;;;;5019709;28;19914;-78
2023/12/17 09:10:28;;;;;;;;;;;4.00;99.90;;;;;;5018706;28;19906;-76
2023/12/17 09:12:54;;;;;;;;;;;4.00;99.90;;;;;;5020954;28;19913;-77
2023/12/17 09:15:20;;;;;;;;;;;4.00;99.90;;;;;;5035722;28;20004;-78
2023/12/17 09:17:46;;;;;;;;;;;4.00;99.90;;;;;;5015898;28;20011;-77
2023/12/17 09:20:13;;;;;;;;;;;4.00;99.90;;;;;;5015834;28;19937;-78
2023/12/17 09:22:39;;;;;;;;;;;4.10;99.90;;;;;;5035773;28;19995;-78
2023/12/17 09:25:05;;;;;;;;;;;4.10;99.90;;;;;;5035588;28;19945;-77
2023/12/17 09:27:30;;;;;;;;;;;4.10;99.90;;;;;;5035926;28;19914;-78
2023/12/17 09:29:57;;;;;;;;;;;4.10;99.90;;;;;;5021287;28;19905;-78
2023/12/17 09:32:22;;;;;;;;;;;4.10;99.90;;;;;;5022771;28;19906;-79
2023/12/17 09:34:48;;;;;;;;;;;4.10;99.90;;;;;;5037079;28;19916;-77
2023/12/17 09:37:13;;;;;;;;;;;4.10;99.90;;;;;;5019614;28;19921;-77
2023/12/17 09:39:39;;;;;;;;;;;4.10;99.90;;;;;;5021264;28;19909;-78
2023/12/17 09:42:04;;;;;;;;;;;4.20;99.90;;;;;;5020575;28;19912;-78
2023/12/17 09:44:30;;;;;;;;;;;4.20;99.90;;;;;;5019382;28;19910;-77
2023/12/17 09:46:58;;;;;;;;;;;4.30;99.90;;;;;;5017697;28;19909;-77
2023/12/17 09:49:24;;;;;;;;;;;4.30;99.90;;;;;;5035493;28;19932;-78
2023/12/17 09:52:01;;;;;;;;;;;4.30;99.90;;;;;;5036115;28;19909;-79
2023/12/17 09:54:27;;;;;;;;;;;4.20;99.90;;;;;;5021386;28;19941;-80
2023/12/17 09:56:56;;;;;;;;;;;4.40;99.90;;;;;;5023035;28;19929;-79
2023/12/17 09:59:22;;;;;;;;;;;4.20;99.90;;;;;;5045341;28;19905;-79
2023/12/17 10:01:48;;;;;;;;;;;4.20;99.90;;;;;;5041803;28;19906;-78
2023/12/17 10:04:13;;;;;;;;;;;4.30;99.90;;;;;;5033974;28;20324;-78
2023/12/17 10:06:40;;;;;;;;;;;4.40;99.90;;;;;;5036577;28;19960;-78
2023/12/17 10:09:06;;;;;;;;;;;4.40;99.90;;;;;;5022129;28;19909;-78
2023/12/17 10:11:32;;;;;;;;;;;4.40;99.90;;;;;;5038072;28;19906;-78
2023/12/17 10:13:59;;;;;;;;;;;4.40;99.90;;;;;;5025398;28;19905;-79
2023/12/17 10:16:25;;;;;;;;;;;4.50;99.90;;;;;;5017784;28;20353;-78
2023/12/17 10:18:51;;;;;;;;;;;4.50;99.90;;;;;;5017329;28;19923;-79
2023/12/17 10:21:17;;;;;;;;;;;4.50;99.90;;;;;;5018507;28;19911;-78
2023/12/17 10:23:46;;;;;;;;;;;4.50;99.90;;;;;;5014704;28;19910;-77
2023/12/17 10:26:12;;;;;;;;;;;4.50;99.90;;;;;;5014095;28;19905;-77
2023/12/17 10:28:38;;;;;;;;;;;4.50;99.90;;;;;;5015247;28;20279;-77
2023/12/17 10:31:05;;;;;;;;;;;4.70;99.90;;;;;;5013956;28;20371;-76
2023/12/17 10:33:34;;;;;;;;;;;4.70;99.90;;;;;;5013508;28;19910;-77
2023/12/17 10:36:03;;;;;;;;;;;4.90;99.90;;;;;;5013987;28;19909;-77
2023/12/17 10:38:28;;;;;;;;;;;4.90;99.90;;;;;;5014263;28;20297;-76
2023/12/17 10:40:54;;;;;;;;;;;5.00;99.90;;;;;;5013577;28;19913;-77
2023/12/17 10:43:22;;;;;;;;;;;5.20;99.90;;;;;;5028472;28;19952;-76
2023/12/17 10:45:49;;;;;;;;;;;5.30;99.90;;;;;;5029684;28;19906;-78
2023/12/17 10:48:15;;;;;;;;;;;5.40;99.90;;;;;;5013941;28;19917;-76
2023/12/17 10:50:42;;;;;;;;;;;5.40;99.90;;;;;;5028552;28;19910;-77
2023/12/17 10:53:08;;;;;;;;;;;5.30;99.90;;;;;;5012655;28;19916;-78
2023/12/17 10:55:33;;;;;;;;;;;5.40;99.90;;;;;;5029334;28;19905;-77
2023/12/17 10:58:01;;;;;;;;;;;5.50;99.90;;;;;;5014344;28;20399;-76
2023/12/17 11:00:29;;;;;;;;;;;5.40;99.90;;;;;;5014331;28;19945;-77
2023/12/17 11:02:57;;;;;;;;;;;5.50;99.90;;;;;;5029786;28;19909;-78
2023/12/17 11:05:22;;;;;;;;;;;5.50;99.90;;;;;;5013380;28;20335;-77
2023/12/17 11:07:48;;;;;;;;;;;5.60;99.90;;;;;;5030062;28;20452;-78
2023/12/17 11:10:16;;;;;;;;;;;5.80;99.90;;;;;;5015897;28;20008;-78
2023/12/17 11:12:44;;;;;;;;;;;5.90;99.90;;;;;;5015556;28;19971;-78
2023/12/17 11:15:11;;;;;;;;;;;6.10;99.90;;;;;;5034107;28;19929;-78
2023/12/17 11:17:40;;;;;;;;;;;6.20;99.90;;;;;;5012321;28;19912;-77
2023/12/17 11:20:06;;;;;;;;;;;6.10;99.90;;;;;;5028315;28;19909;-77
2023/12/17 11:22:36;;;;;;;;;;;6.20;99.90;;;;;;5031002;28;19905;-76
2023/12/17 11:25:02;;;;;;;;;;;6.20;99.90;;;;;;5015984;28;19905;-78
2023/12/17 11:27:30;;;;;;;;;;;6.10;99.90;;;;;;5019295;28;19916;-78
2023/12/17 11:29:55;;;;;;;;;;;6.20;99.90;;;;;;5017660;28;19905;-78
2023/12/17 11:32:21;;;;;;;;;;;6.10;99.90;;;;;;5032653;28;19905;-77
2023/12/17 11:34:48;;;;;;;;;;;6.10;99.90;;;;;;5032661;28;19915;-77
2023/12/17 11:37:21;;;;;;;;;;;6.00;99.90;;;;;;5017484;28;19936;-78
2023/12/17 11:39:47;;;;;;;;;;;5.90;99.90;;;;;;5032939;28;19959;-78
2023/12/17 11:42:14;;;;;;;;;;;5.90;99.90;;;;;;5017743;28;19905;-78
2023/12/17 11:44:50;;;;;;;;;;;5.80;99.90;;;;;;5033862;28;20374;-78
2023/12/17 11:47:16;;;;;;;;;;;5.80;99.90;;;;;;5018582;28;20015;-78
2023/12/17 11:49:44;;;;;;;;;;;5.70;99.90;;;;;;5032912;28;20378;-78
2023/12/17 11:52:10;;;;;;;;;;;5.70;99.90;;;;;;5015500;28;19909;-78
2023/12/17 11:54:36;;;;;;;;;;;5.70;99.90;;;;;;5034187;28;19909;-78
2023/12/17 11:57:02;;;;;;;;;;;5.70;99.90;;;;;;5018979;28;19979;-78
2023/12/17 11:59:31;;;;;;;;;;;5.70;99.90;;;;;;5019894;28;19910;-78
2023/12/17 12:01:57;;;;;;;;;;;5.70;99.90;;;;;;5033994;28;19905;-77
2023/12/17 12:04:22;;;;;;;;;;;5.80;99.90;;;;;;5016776;28;19920;-78
2023/12/17 12:06:52;;;;;;;;;;;5.90;99.90;;;;;;5015017;28;19960;-78
2023/12/17 12:09:19;;;;;;;;;;;6.00;99.90;;;;;;5017948;28;19916;-78
2023/12/17 12:11:44;;;;;;;;;;;6.00;99.90;;;;;;5018840;28;19906;-77
2023/12/17 12:14:10;;;;;;;;;;;6.00;99.90;;;;;;5022413;28;19910;-78
2023/12/17 12:16:39;;;;;;;;;;;6.20;99.90;;;;;;5021240;28;19906;-78
2023/12/17 12:19:05;;;;;;;;;;;6.20;99.90;;;;;;5018659;28;19963;-77
2023/12/17 12:21:30;;;;;;;;;;;6.30;99.90;;;;;;5032813;28;19909;-78
2023/12/17 12:23:57;;;;;;;;;;;6.40;99.90;;;;;;5018541;28;20004;-78
2023/12/17 12:26:24;;;;;;;;;;;6.50;99.90;;;;;;5033099;28;20009;-78
2023/12/17 12:29:00;;;;;;;;;;;6.60;99.90;;;;;;5033259;28;19945;-79
2023/12/17 12:31:26;;;;;;;;;;;6.50;99.90;;;;;;5020140;28;19913;-78
2023/12/17 12:33:55;;;;;;;;;;;6.50;99.90;;;;;;5037129;28;19909;-78
2023/12/17 12:36:21;;;;;;;;;;;6.50;99.90;;;;;;5020147;28;19909;-78
2023/12/17 12:39:03;;;;;;;;;;;6.50;99.90;;;;;;5019562;28;19913;-77
2023/12/17 12:41:30;;;;;;;;;;;6.60;99.90;;;;;;5022469;28;19919;-78
2023/12/17 12:43:56;;;;;;;;;;;6.50;99.90;;;;;;5037539;28;20055;-78
2023/12/17 12:46:22;;;;;;;;;;;6.50;99.90;;;;;;5036332;28;19912;-78
2023/12/17 12:48:57;;;;;;;;;;;6.40;99.90;;;;;;5019435;28;19921;-77
2023/12/17 12:51:23;;;;;;;;;;;6.50;99.90;;;;;;5033583;28;19909;-77
2023/12/17 12:53:49;;;;;;;;;;;6.50;99.90;;;;;;5032474;28;19910;-77
2023/12/17 12:56:15;;;;;;;;;;;6.40;99.90;;;;;;5018086;28;19973;-77
2023/12/17 12:58:42;;;;;;;;;;;6.40;99.90;;;;;;5018146;28;19936;-76
2023/12/17 13:01:07;;;;;;;;;;;6.30;99.90;;;;;;5018072;28;19913;-77
2023/12/17 13:03:33;;;;;;;;;;;6.20;99.90;;;;;;5018041;28;19912;-77
2023/12/17 13:05:58;;;;;;;;;;;6.20;99.90;;;;;;5037924;28;20370;-78
2023/12/17 13:08:24;;;;;;;;;;;6.20;99.90;;;;;;5021699;28;20416;-79
2023/12/17 13:10:49;;;;;;;;;;;6.20;99.90;;;;;;5021965;28;19913;-78
2023/12/17 13:13:15;;;;;;;;;;;6.20;99.90;;;;;;5019798;28;19911;-76
2023/12/17 13:15:40;;;;;;;;;;;6.30;99.90;;;;;;5004403;28;19909;-78
2023/12/17 13:18:06;;;;;;;;;;;6.30;99.90;;;;;;5001601;28;19910;-78
2023/12/17 13:20:31;;;;;;;;;;;6.30;99.90;;;;;;5000135;28;19910;-78
2023/12/17 13:22:57;;;;;;;;;;;6.30;99.90;;;;;;5002358;28;19909;-78
2023/12/17 13:25:22;;;;;;;;;;;6.30;99.90;;;;;;5002935;28;20358;-79
2023/12/17 13:27:50;;;;;;;;;;;6.30;99.90;;;;;;5002245;28;20016;-78
2023/12/17 13:30:15;;;;;;;;;;;6.30;99.90;;;;;;5004210;28;19909;-78
2023/12/17 13:32:41;;;;;;;;;;;6.40;99.90;;;;;;5002598;28;19944;-77
2023/12/17 13:35:07;;;;;;;;;;;6.40;99.90;;;;;;4997259;28;19917;-77
2023/12/17 13:37:32;;;;;;;;;;;6.40;99.90;;;;;;4995642;28;19944;-78
2023/12/17 13:39:58;;;;;;;;;;;6.40;99.90;;;;;;4996181;28;19916;-77
2023/12/17 13:42:23;;;;;;;;;;;6.40;99.90;;;;;;4995017;28;19906;-79
2023/12/17 13:44:49;;;;;;;;;;;6.40;99.90;;;;;;4996564;28;19906;-77
2023/12/17 13:47:14;;;;;;;;;;;6.40;99.90;;;;;;4998848;28;19910;-78
2023/12/17 13:49:40;;;;;;;;;;;6.30;99.90;;;;;;5001713;28;19909;-78
2023/12/17 13:52:09;;;;;;;;;;;6.30;99.90;;;;;;5000279;28;19910;-77
2023/12/17 13:54:34;;;;;;;;;;;6.20;99.90;;;;;;5003654;28;19913;-77
2023/12/17 13:57:02;;;;;;;;;;;6.20;99.90;;;;;;4996761;28;19910;-79
2023/12/17 13:59:28;;;;;;;;;;;6.10;99.90;;;;;;5000121;28;19912;-78
2023/12/17 14:01:53;;;;;;;;;;;6.10;99.90;;;;;;5001122;28;20327;-78
2023/12/17 14:04:19;;;;;;;;;;;6.00;99.90;;;;;;5001558;28;19985;-78
2023/12/17 14:06:44;;;;;;;;;;;6.00;99.90;;;;;;5000357;28;19937;-77
2023/12/17 14:09:10;;;;;;;;;;;6.00;99.90;;;;;;5000385;28;19909;-77
2023/12/17 14:11:38;;;;;;;;;;;6.00;99.90;;;;;;4999862;28;19906;-78
2023/12/17 14:14:05;;;;;;;;;;;5.90;99.90;;;;;;4994804;28;19909;-77
2023/12/17 14:16:31;;;;;;;;;;;5.80;99.90;;;;;;4996259;28;19910;-78
2023/12/17 14:18:56;;;;;;;;;;;5.80;99.90;;;;;;4996792;28;20291;-78
2023/12/17 14:21:22;;;;;;;;;;;5.70;99.90;;;;;;4995903;28;19909;-76